Time;durP1;ratioP1;P1;durP2;ratioP2;P2;SDS_P1;SDS_P2;PMS_P1;PMS_P2;Temp;Humidity;BMP_temperature;BMP_pressure;BME280_temperature;BME280_humidity;BME280_pressure;Samples;Min_cycle;Max_cycle;Signal;HPM_P1;HPM_P2
2022/12/11 00:02:14;;;;;;;88.82;54.42;;;;;;;4.73;100.00;98637.40;1701258;83;21039;-77
2022/12/11 00:04:40;;;;;;;82.97;51.45;;;;;;;4.70;100.00;98640.52;1701325;84;21048;-76
2022/12/11 00:07:07;;;;;;;76.02;49.65;;;;;;;4.65;100.00;98644.41;1701433;84;21559;-81
2022/12/11 00:09:33;;;;;;;63.30;40.15;;;;;;;4.68;100.00;98637.81;1703551;83;21184;-78
2022/12/11 00:12:01;;;;;;;72.45;44.25;;;;;;;4.70;100.00;98632.53;1712053;83;21112;-78
2022/12/11 00:14:28;;;;;;;58.05;40.83;;;;;;;4.70;100.00;98620.55;1711188;82;20975;-82
2022/12/11 00:16:55;;;;;;;68.10;45.10;;;;;;;4.64;100.00;98618.05;1733567;82;21495;-86
2022/12/11 00:19:21;;;;;;;57.40;40.08;;;;;;;4.63;100.00;98619.08;1740877;82;21048;-81
2022/12/11 00:21:48;;;;;;;44.03;30.12;;;;;;;4.66;100.00;98614.60;1740844;82;21527;-79
2022/12/11 00:24:14;;;;;;;40.67;29.40;;;;;;;4.67;100.00;98620.22;1688113;82;21533;-75
2022/12/11 00:26:41;;;;;;;49.27;34.80;;;;;;;4.70;100.00;98621.87;1683377;85;21042;-73
2022/12/11 00:29:13;;;;;;;61.75;38.08;;;;;;;4.63;100.00;98621.22;1683032;85;21030;-75
2022/12/11 00:31:41;;;;;;;46.92;32.50;;;;;;;4.62;100.00;98627.59;1688950;83;21023;-77
2022/12/11 00:34:07;;;;;;;42.83;30.17;;;;;;;4.64;100.00;98628.17;1712853;83;21113;-73
2022/12/11 00:36:35;;;;;;;39.30;30.43;;;;;;;4.68;100.00;98629.31;1704952;83;20948;-71
2022/12/11 00:39:02;;;;;;;39.35;28.60;;;;;;;4.74;100.00;98623.05;1687798;82;21085;-71
2022/12/11 00:41:29;;;;;;;49.45;35.30;;;;;;;4.76;100.00;98618.79;1684011;85;20997;-72
2022/12/11 00:43:55;;;;;;;54.88;35.15;;;;;;;4.64;100.00;98619.38;1682881;85;21065;-73
2022/12/11 00:46:23;;;;;;;43.85;28.12;;;;;;;4.57;100.00;98620.83;1671473;85;21045;-71
2022/12/11 00:48:50;;;;;;;39.75;27.42;;;;;;;4.63;100.00;98615.09;1655187;86;21029;-72
2022/12/11 00:51:16;;;;;;;30.70;21.90;;;;;;;4.51;100.00;98600.47;1676192;85;21487;-72
2022/12/11 00:53:44;;;;;;;31.07;23.90;;;;;;;4.35;100.00;98603.39;1698744;83;20965;-72
2022/12/11 00:56:16;;;;;;;22.35;16.62;;;;;;;4.27;100.00;98600.27;1698796;81;21560;-71
2022/12/11 00:58:43;;;;;;;17.10;13.15;;;;;;;4.30;100.00;98597.96;1712699;83;21789;-73
2022/12/11 01:01:13;;;;;;;15.60;13.75;;;;;;;4.34;100.00;98592.45;1712780;83;21024;-71
2022/12/11 01:03:40;;;;;;;15.10;13.50;;;;;;;4.38;100.00;98592.77;1719365;83;21008;-70
2022/12/11 01:06:07;;;;;;;18.70;13.90;;;;;;;4.44;100.00;98582.52;1710711;83;21114;-71
2022/12/11 01:08:33;;;;;;;16.85;13.85;;;;;;;4.47;100.00;98573.23;1684442;83;21050;-70
2022/12/11 01:11:03;;;;;;;16.97;12.35;;;;;;;4.46;100.00;98576.97;1693650;83;21422;-74
2022/12/11 01:13:30;;;;;;;17.20;13.15;;;;;;;4.51;100.00;98578.40;1712969;83;21031;-73
2022/12/11 01:15:57;;;;;;;16.17;12.93;;;;;;;4.54;100.00;98578.72;1696238;83;20988;-73
2022/12/11 01:18:24;;;;;;;17.05;13.85;;;;;;;4.55;100.00;98583.00;1680876;85;21064;-73
2022/12/11 01:20:50;;;;;;;14.00;12.18;;;;;;;4.63;100.00;98597.78;1653232;85;21311;-73
2022/12/11 01:23:16;;;;;;;16.48;13.15;;;;;;;4.69;100.00;98604.30;1680574;85;21179;-71
2022/12/11 01:25:45;;;;;;;15.65;13.50;;;;;;;4.81;100.00;98611.70;1688323;83;21002;-71
2022/12/11 01:28:14;;;;;;;13.53;12.13;;;;;;;4.91;100.00;98622.25;1709587;83;21574;-74
2022/12/11 01:30:42;;;;;;;13.98;11.33;;;;;;;4.99;100.00;98611.23;1658003;83;21074;-72
2022/12/11 01:33:10;;;;;;;16.50;10.85;;;;;;;5.00;100.00;98608.83;1709835;83;21677;-72
2022/12/11 01:35:39;;;;;;;14.30;11.20;;;;;;;5.00;100.00;98605.64;1681665;83;21109;-73
2022/12/11 01:38:06;;;;;;;24.47;17.73;;;;;;;4.87;100.00;98605.14;1675938;84;20934;-69
2022/12/11 01:40:32;;;;;;;13.90;11.53;;;;;;;4.80;100.00;98616.73;1709330;84;21010;-73
2022/12/11 01:42:59;;;;;;;23.18;17.20;;;;;;;4.76;100.00;98607.61;1704948;83;21078;-73
2022/12/11 01:45:37;;;;;;;29.23;21.68;;;;;;;4.62;100.00;98603.63;1707228;83;20973;-75
2022/12/11 01:48:30;;;;;;;31.93;25.65;;;;;;;4.49;100.00;98596.45;1681359;83;21879;-71
2022/12/11 01:51:00;;;;;;;40.08;29.60;;;;;;;4.25;100.00;98599.19;1707930;83;21066;-71
2022/12/11 01:53:39;;;;;;;36.42;28.00;;;;;;;4.10;100.00;98592.22;1699984;83;21051;-70
2022/12/11 01:56:06;;;;;;;41.83;29.30;;;;;;;4.07;100.00;98594.03;1705720;82;21090;-75
2022/12/11 01:58:38;;;;;;;39.25;30.32;;;;;;;4.03;100.00;98590.75;1709297;83;21098;-71
2022/12/11 02:01:04;;;;;;;40.95;30.97;;;;;;;3.92;100.00;98589.20;1681925;83;21259;-71
2022/12/11 02:03:31;;;;;;;40.78;30.43;;;;;;;3.86;100.00;98578.68;1709298;83;21577;-72
2022/12/11 02:06:00;;;;;;;44.60;30.40;;;;;;;3.82;100.00;98574.36;1708996;83;21074;-72
2022/12/11 02:08:28;;;;;;;39.15;27.27;;;;;;;3.77;100.00;98576.91;1705269;83;21043;-72
2022/12/11 02:11:12;;;;;;;39.75;27.62;;;;;;;3.80;100.00;98575.62;1692994;82;21029;-73
2022/12/11 02:13:48;;;;;;;46.30;30.32;;;;;;;3.68;100.00;98571.66;1680882;85;21533;-71
2022/12/11 02:16:20;;;;;;;39.10;26.60;;;;;;;3.61;100.00;98572.28;1686022;83;21086;-71
2022/12/11 02:19:00;;;;;;;38.28;28.32;;;;;;;3.56;100.00;98576.16;1709009;83;21009;-72
2022/12/11 02:21:42;;;;;;;35.70;26.85;;;;;;;3.49;100.00;98566.99;1689745;83;21640;-71
2022/12/11 02:24:38;;;;;;;35.23;25.68;;;;;;;3.46;100.00;98558.13;1709281;83;21102;-71
2022/12/11 02:27:19;;;;;;;30.82;22.98;;;;;;;3.41;100.00;98541.26;1694356;83;21170;-71
2022/12/11 02:29:53;;;;;;;32.10;24.87;;;;;;;3.40;100.00;98529.03;1709124;83;21066;-71
2022/12/11 02:32:48;;;;;;;31.27;22.67;;;;;;;3.42;100.00;98523.77;1709338;83;21566;-71
2022/12/11 02:35:31;;;;;;;29.37;20.68;;;;;;;3.44;100.00;98527.02;1709259;83;21019;-71
2022/12/11 02:38:04;;;;;;;26.12;20.35;;;;;;;3.46;100.00;98516.13;1706689;83;21016;-71
2022/12/11 02:40:31;;;;;;;;;;;;;;;3.43;100.00;98501.98;1699339;82;22018;-71
2022/12/11 02:43:01;;;;;;;22.27;17.92;;;;;;;3.38;100.00;98489.40;1680869;85;20105;-71
2022/12/11 02:45:28;;;;;;;20.05;15.48;;;;;;;3.34;100.00;98497.55;1652413;85;21013;-71
2022/12/11 02:47:57;;;;;;;19.65;16.73;;;;;;;3.32;100.00;98489.52;1700693;84;21015;-71
2022/12/11 02:50:23;;;;;;;20.62;15.00;;;;;;;3.34;100.00;98489.58;1709530;83;20990;-71
2022/12/11 07:50:53;;;;;;;17.07;15.38;;;;;;;4.37;100.00;98187.94;1664451;83;28167;-82
2022/12/11 07:53:20;;;;;;;13.78;12.37;;;;;;;4.46;100.00;98198.98;1624289;88;21030;-74
2022/12/11 07:55:47;;;;;;;15.15;13.65;;;;;;;4.54;100.00;98184.72;1624487;88;21784;-74
2022/12/11 07:58:14;;;;;;;17.75;14.35;;;;;;;4.57;100.00;98181.55;1625084;88;21546;-77
2022/12/11 08:00:40;;;;;;;16.60;14.68;;;;;;;4.60;100.00;98166.95;1626723;86;21000;-72
2022/12/11 08:03:09;;;;;;;18.07;14.73;;;;;;;4.59;100.00;98162.67;1625767;88;21012;-89
2022/12/11 08:05:36;;;;;;;15.72;14.13;;;;;;;4.65;100.00;98166.45;1625880;88;21045;-73
2022/12/11 08:08:04;;;;;;;18.30;13.90;;;;;;;4.76;100.00;98162.05;1625816;86;21302;-74
2022/12/11 08:10:32;;;;;;;18.48;13.08;;;;;;;4.81;100.00;98162.92;1625804;86;20978;-85
2022/12/11 08:13:02;;;;;;;18.95;14.65;;;;;;;4.85;100.00;98156.56;1625651;88;21049;-72
2022/12/11 08:27:12;;;;;;;12.50;11.30;;;;;;;5.51;100.00;98134.53;1689975;84;22585;-69
2022/12/11 08:29:38;;;;;;;12.40;11.15;;;;;;;5.67;100.00;98134.90;1735076;82;20986;-77
2022/12/11 08:32:05;;;;;;;11.73;10.53;;;;;;;5.80;100.00;98113.66;1728501;82;21073;-76
2022/12/11 08:34:33;;;;;;;12.07;10.85;;;;;;;5.88;100.00;98111.34;1736295;82;21538;-75
2022/12/11 08:37:00;;;;;;;12.95;11.55;;;;;;;5.91;100.00;98110.01;1707455;82;20943;-76
2022/12/11 08:39:27;;;;;;;11.22;10.13;;;;;;;6.04;100.00;98108.23;1736224;81;21522;-72
2022/12/11 08:41:56;;;;;;;13.28;11.93;;;;;;;5.99;100.00;98095.67;1734082;82;21029;-72
2022/12/11 08:44:24;;;;;;;12.55;10.70;;;;;;;5.94;100.00;98096.98;1736185;82;21900;-72
2022/12/11 08:46:59;;;;;;;15.58;11.45;;;;;;;5.96;100.00;98086.83;1735763;81;21097;-75
2022/12/11 08:49:28;;;;;;;14.47;12.95;;;;;;;6.04;100.00;98085.55;1723587;82;21018;-73
2022/12/11 08:51:55;;;;;;;14.07;12.45;;;;;;;6.14;100.00;98081.05;1736128;82;21078;-73
2022/12/11 08:54:22;;;;;;;12.47;11.28;;;;;;;6.08;100.00;98071.95;1734041;82;21078;-72
2022/12/11 08:56:49;;;;;;;13.68;12.28;;;;;;;6.04;100.00;98074.88;1678265;85;21344;-71
2022/12/11 08:59:17;;;;;;;16.80;12.47;;;;;;;6.13;100.00;98067.45;1678297;85;20997;-74
2022/12/11 09:01:43;;;;;;;30.95;26.75;;;;;;;6.23;100.00;98061.88;1719633;82;21046;-74
2022/12/11 09:04:11;;;;;;;17.05;15.32;;;;;;;6.28;100.00;98064.03;1736413;82;21976;-73
2022/12/11 09:06:40;;;;;;;15.63;11.80;;;;;;;6.32;100.00;98049.09;1709352;82;21542;-73
2022/12/11 09:09:07;;;;;;;13.13;11.83;;;;;;;6.30;100.00;98049.87;1702239;83;21218;-73
2022/12/11 09:11:35;;;;;;;11.80;10.68;;;;;;;6.29;100.00;98040.26;1706514;83;21207;-73
2022/12/11 09:14:14;;;;;;;11.33;10.18;;;;;;;6.31;100.00;98029.33;1706984;84;21002;-74
2022/12/11 09:16:50;;;;;;;11.20;10.13;;;;;;;6.36;100.00;98030.15;1698064;84;21041;-73
2022/12/11 09:19:18;;;;;;;11.78;10.68;;;;;;;6.43;100.00;98017.34;1706792;84;21211;-73
2022/12/11 09:21:55;;;;;;;10.85;9.75;;;;;;;6.53;100.00;98017.89;1679665;84;21537;-74
2022/12/11 09:24:23;;;;;;;11.57;10.50;;;;;;;6.52;100.00;98014.41;1706088;84;21068;-73
2022/12/11 09:26:51;;;;;;;10.55;9.40;;;;;;;6.51;100.00;98008.02;1681825;83;21060;-70
2022/12/11 09:29:23;;;;;;;10.85;9.73;;;;;;;6.51;100.00;98002.15;1683730;84;21114;-83
2022/12/11 09:31:50;;;;;;;14.40;12.20;;;;;;;6.56;100.00;97994.14;1683416;84;21069;-78
2022/12/11 09:34:19;;;;;;;10.88;9.90;;;;;;;6.65;100.00;97997.09;1683894;84;21144;-77
2022/12/11 09:36:47;;;;;;;12.53;11.22;;;;;;;6.66;100.00;97996.03;1684415;84;21048;-76
2022/12/11 09:39:17;;;;;;;12.90;11.63;;;;;;;6.54;100.00;97986.92;1680801;85;21005;-79
2022/12/11 09:42:10;;;;;;;14.40;12.93;;;;;;;6.39;100.00;97982.89;1680557;85;21191;-78
2022/12/11 09:44:47;;;;;;;15.05;12.50;;;;;;;6.32;100.00;97975.68;1680370;85;21060;-76
2022/12/11 09:47:35;;;;;;;12.65;11.35;;;;;;;6.35;100.00;97969.00;1699628;84;21218;-77
2022/12/11 09:50:31;;;;;;;15.32;13.10;;;;;;;6.39;100.00;97969.54;1680800;84;21605;-76
2022/12/11 09:53:17;;;;;;;14.03;12.63;;;;;;;6.45;100.00;97952.47;1653013;86;21042;-76
2022/12/11 09:56:17;;;;;;;14.47;12.93;;;;;;;6.50;100.00;97953.80;1652947;86;21106;-75
2022/12/11 09:58:59;;;;;;;15.20;13.75;;;;;;;6.54;100.00;97942.86;1668506;84;21110;-83
2022/12/11 10:02:31;;;;;;;16.65;14.45;;;;;;;6.67;100.00;97936.17;1708892;84;21159;-80
2022/12/11 10:05:35;;;;;;;17.27;15.18;;;;;;;6.79;100.00;97924.70;1649346;86;21057;-77
2022/12/11 10:08:33;;;;;;;17.02;13.22;;;;;;;6.93;100.00;97908.38;1652669;86;21073;-76
2022/12/11 10:11:28;;;;;;;15.05;13.58;;;;;;;7.09;100.00;97905.15;1652923;86;21040;-77
2022/12/11 10:14:52;;;;;;;14.85;12.40;;;;;;;7.20;100.00;97898.69;1649344;85;21057;-86
2022/12/11 10:17:32;;;;;;;16.17;13.40;;;;;;;7.42;100.00;97889.01;1652108;86;26504;-80
2022/12/11 10:20:30;;;;;;;19.50;15.58;;;;;;;7.70;100.00;97867.48;1700962;83;21065;-75
2022/12/11 10:23:18;;;;;;;23.10;15.80;;;;;;;7.90;100.00;97862.02;1708699;84;21064;-79
2022/12/11 10:25:56;;;;;;;18.87;15.48;;;;;;;8.03;100.00;97858.71;1710098;82;21124;-79
2022/12/11 10:28:28;;;;;;;18.27;14.38;;;;;;;8.10;100.00;97841.81;1719952;83;21607;-75
2022/12/11 16:26:53;;;;;;;6.83;6.20;;;;;;;9.88;100.00;97481.75;1737567;80;35493;-76
2022/12/11 16:29:21;;;;;;;8.43;6.97;;;;;;;9.92;100.00;97483.31;1711035;83;21007;-74
2022/12/11 16:31:47;;;;;;;7.55;6.85;;;;;;;9.97;100.00;97477.84;1711135;83;21614;-75
2022/12/11 16:34:15;;;;;;;7.67;6.97;;;;;;;10.01;100.00;97486.34;1710926;83;21047;-81
2022/12/11 16:36:41;;;;;;;8.38;7.42;;;;;;;10.06;100.00;97483.55;1703159;83;21048;-80
2022/12/11 16:39:11;;;;;;;7.97;7.28;;;;;;;10.11;100.00;97479.16;1688043;83;20990;-78
2022/12/11 16:41:38;;;;;;;7.40;6.58;;;;;;;10.15;100.00;97474.78;1674739;85;21029;-81
2022/12/11 16:44:05;;;;;;;7.62;6.90;;;;;;;10.15;100.00;97471.55;1689101;84;21164;-77
2022/12/11 16:46:32;;;;;;;8.33;7.53;;;;;;;10.13;100.00;97468.36;1691591;83;21022;-75
2022/12/11 16:48:58;;;;;;;8.00;6.60;;;;;;;10.13;100.00;97467.02;1691692;84;20989;-82
2022/12/11 16:51:25;;;;;;;7.75;6.30;;;;;;;10.18;100.00;97472.85;1691946;84;20974;-81
2022/12/11 16:53:51;;;;;;;9.03;8.23;;;;;;;10.22;100.00;97475.18;1691636;84;21066;-82
2022/12/11 16:56:18;;;;;;;6.78;6.22;;;;;;;10.26;100.00;97472.16;1686395;83;21254;-81
2022/12/11 16:58:46;;;;;;;7.65;6.85;;;;;;;10.27;100.00;97473.19;1698680;84;21026;-79
2022/12/11 17:01:14;;;;;;;8.03;7.22;;;;;;;10.32;100.00;97481.68;1698959;84;21546;-83
2022/12/11 17:03:41;;;;;;;8.63;7.72;;;;;;;10.36;100.00;97474.05;1695364;84;20991;-81
2022/12/11 17:06:09;;;;;;;12.47;8.38;;;;;;;10.40;100.00;97477.75;1685026;84;21590;-83
2022/12/11 17:08:36;;;;;;;9.43;8.30;;;;;;;10.45;100.00;97472.81;1673906;84;21145;-82
2022/12/11 17:11:12;;;;;;;11.63;7.08;;;;;;;10.49;100.00;97475.14;1675256;85;21055;-85
2022/12/11 17:13:39;;;;;;;8.28;7.20;;;;;;;10.53;100.00;97480.14;1678782;84;20951;-81
2022/12/11 17:16:07;;;;;;;8.00;7.12;;;;;;;10.57;100.00;97471.72;1695717;84;21041;-85
2022/12/11 17:18:34;;;;;;;8.08;7.25;;;;;;;10.61;100.00;97470.55;1667885;86;21118;-82
2022/12/11 17:21:10;;;;;;;10.53;7.80;;;;;;;10.66;100.00;97473.92;1699797;84;21765;-82
2022/12/11 17:23:37;;;;;;;9.18;8.28;;;;;;;10.71;100.00;97482.41;1650552;85;21634;-83
2022/12/11 17:26:04;;;;;;;8.68;7.70;;;;;;;10.76;100.00;97483.64;1624354;87;21603;-83
2022/12/11 17:28:37;;;;;;;18.23;10.38;;;;;;;10.78;100.00;97483.60;1634673;87;20996;-82
2022/12/11 17:31:13;;;;;;;12.03;8.73;;;;;;;10.82;100.00;97481.09;1624032;87;21157;-81
2022/12/11 17:33:40;;;;;;;11.90;9.63;;;;;;;10.85;100.00;97487.98;1651577;85;21226;-82
2022/12/11 17:36:13;;;;;;;11.30;9.28;;;;;;;10.90;100.00;97484.38;1646394;87;21046;-81
2022/12/11 17:38:43;;;;;;;12.33;9.65;;;;;;;10.92;100.00;97480.30;1662923;86;20960;-82
2022/12/11 17:41:12;;;;;;;15.25;10.65;;;;;;;10.94;100.00;97478.63;1621316;87;20968;-83
2022/12/11 17:43:39;;;;;;;10.10;9.05;;;;;;;10.98;100.00;97484.22;1639844;86;21026;-82
2022/12/11 17:46:05;;;;;;;14.07;10.10;;;;;;;10.99;100.00;97486.58;1619734;88;21084;-82
2022/12/11 17:48:32;;;;;;;10.90;9.60;;;;;;;10.99;100.00;97490.61;1646205;86;21588;-83
2022/12/11 17:51:05;;;;;;;12.05;9.98;;;;;;;11.01;100.00;97493.80;1646593;86;20988;-82
2022/12/11 17:53:31;;;;;;;16.02;10.78;;;;;;;11.00;100.00;97486.83;1647158;85;21082;-83
2022/12/11 17:56:02;;;;;;;20.97;12.37;;;;;;;11.00;100.00;97485.48;1639977;87;21579;-82
2022/12/11 17:58:30;;;;;;;14.67;10.73;;;;;;;11.02;100.00;97484.64;1648137;86;21947;-83
2022/12/11 18:00:57;;;;;;;17.67;14.28;;;;;;;11.03;100.00;97494.85;1649543;86;21560;-82
2022/12/11 18:03:26;;;;;;;23.60;13.18;;;;;;;11.03;100.00;97488.13;1644890;86;21063;-83
2022/12/11 18:05:57;;;;;;;20.65;14.20;;;;;;;11.03;100.00;97500.23;1644116;86;21011;-80
2022/12/11 22:14:31;;;;;;;7.28;6.58;;;;;;;4.64;100.00;97853.38;1750794;79;119257;-72
2022/12/11 22:16:58;;;;;;;7.03;6.35;;;;;;;4.62;100.00;97852.02;1755327;81;21064;-71
2022/12/11 22:19:25;;;;;;;8.30;7.47;;;;;;;4.63;100.00;97849.63;1755255;81;21969;-72
2022/12/11 22:21:52;;;;;;;7.40;6.70;;;;;;;4.66;100.00;97858.42;1716345;83;22265;-76
2022/12/11 22:24:18;;;;;;;7.40;6.70;;;;;;;4.68;100.00;97862.98;1686170;85;20940;-76
2022/12/11 22:26:45;;;;;;;7.87;6.97;;;;;;;4.69;100.00;97866.72;1701637;84;20960;-76
2022/12/11 22:29:12;;;;;;;8.95;7.83;;;;;;;4.71;100.00;97870.44;1673946;84;20999;-74
2022/12/11 22:31:39;;;;;;;6.87;6.30;;;;;;;4.70;100.00;97867.53;1701970;84;21217;-74
2022/12/11 22:34:05;;;;;;;7.37;6.28;;;;;;;4.68;100.00;97857.13;1702265;84;21010;-75
2022/12/11 22:36:31;;;;;;;6.53;5.95;;;;;;;4.71;100.00;97864.59;1701896;84;20987;-74
2022/12/11 22:38:59;;;;;;;6.97;6.35;;;;;;;4.70;100.00;97862.20;1702252;84;21102;-74
2022/12/11 22:41:28;;;;;;;7.75;6.72;;;;;;;4.68;100.00;97861.64;1701885;84;21543;-76
2022/12/11 22:43:54;;;;;;;8.38;7.67;;;;;;;4.70;100.00;97862.98;1673797;84;21145;-76
2022/12/11 22:46:26;;;;;;;6.25;5.60;;;;;;;4.74;100.00;97878.73;1701765;84;21542;-76
2022/12/11 22:48:53;;;;;;;5.72;5.22;;;;;;;4.80;100.00;97882.21;1702064;84;21600;-76
2022/12/11 22:51:21;;;;;;;6.80;6.22;;;;;;;4.80;100.00;97879.55;1701826;84;21007;-75
2022/12/11 22:53:48;;;;;;;8.33;6.65;;;;;;;4.74;100.00;97882.73;1701905;84;21083;-74
2022/12/11 22:56:15;;;;;;;6.95;5.67;;;;;;;4.72;100.00;97890.69;1702180;84;21123;-75
2022/12/11 22:58:43;;;;;;;6.12;5.53;;;;;;;4.73;100.00;97890.97;1701857;84;21106;-76
2022/12/11 23:01:12;;;;;;;6.58;5.72;;;;;;;4.71;100.00;97893.88;1702162;84;21045;-74
2022/12/11 23:03:39;;;;;;;6.37;5.78;;;;;;;4.68;100.00;97901.58;1721471;83;20999;-73
2022/12/11 23:06:10;;;;;;;6.33;5.70;;;;;;;4.68;100.00;97898.92;1731481;82;21085;-70
2022/12/11 23:08:36;;;;;;;6.35;5.75;;;;;;;4.63;100.00;97893.03;1712307;81;21023;-73
2022/12/11 23:11:13;;;;;;;6.60;5.95;;;;;;;4.57;100.00;97899.36;1716359;81;20982;-72
2022/12/11 23:13:39;;;;;;;6.35;5.55;;;;;;;4.55;100.00;97896.17;1707970;83;21019;-72
2022/12/11 23:16:09;;;;;;;5.80;5.15;;;;;;;4.45;100.00;97885.45;1752107;81;21091;-72
2022/12/11 23:18:35;;;;;;;9.83;6.33;;;;;;;4.35;100.00;97888.02;1742120;81;21039;-73
2022/12/11 23:21:03;;;;;;;5.55;5.05;;;;;;;4.27;100.00;97883.95;1730954;82;21092;-81
2022/12/11 23:23:31;;;;;;;4.25;3.92;;;;;;;4.28;100.00;97884.75;1729098;82;20996;-73
2022/12/11 23:25:58;;;;;;;4.95;4.47;;;;;;;4.26;100.00;97886.89;1723880;81;21093;-74
2022/12/11 23:28:24;;;;;;;6.15;4.65;;;;;;;4.21;100.00;97898.81;1754586;81;20967;-75
2022/12/11 23:30:51;;;;;;;4.83;4.33;;;;;;;4.13;100.00;97909.89;1736772;81;21598;-74
2022/12/11 23:33:17;;;;;;;5.00;4.50;;;;;;;4.08;100.00;97909.31;1755016;80;21114;-76
2022/12/11 23:35:44;;;;;;;5.28;4.78;;;;;;;4.06;100.00;97911.44;1726669;81;21003;-75
2022/12/11 23:38:11;;;;;;;5.33;4.90;;;;;;;4.06;100.00;97911.97;1742853;81;20944;-75
2022/12/11 23:40:38;;;;;;;4.72;4.28;;;;;;;4.05;100.00;97913.02;1733230;82;21043;-76
2022/12/11 23:43:05;;;;;;;5.37;4.97;;;;;;;4.06;100.00;97914.63;1791911;79;21027;-75
2022/12/11 23:45:31;;;;;;;5.90;5.40;;;;;;;4.00;100.00;97907.64;1781374;79;21113;-75
2022/12/11 23:47:57;;;;;;;5.00;4.60;;;;;;;3.92;100.00;97914.23;1796573;79;21091;-75
2022/12/11 23:50:25;;;;;;;4.83;4.45;;;;;;;3.88;100.00;97915.27;1771274;79;21035;-78
2022/12/11 23:52:51;;;;;;;5.10;4.60;;;;;;;3.79;100.00;97920.72;1786959;79;20965;-78
2022/12/11 23:55:19;;;;;;;5.92;4.90;;;;;;;3.73;100.00;97916.95;1784275;79;21084;-76
2022/12/11 23:57:47;;;;;;;4.75;4.35;;;;;;;3.70;100.00;97929.38;1776653;80;21118;-81
